createdAt,value
2022-09-12T00:01:23.514Z,15.20
2022-09-12T00:03:54.786Z,15.45
2022-09-12T00:06:24.177Z,14.63
2022-09-12T00:08:51.879Z,15.02
2022-09-12T00:11:18.602Z,15.38
2022-09-12T00:13:45.086Z,15.98
2022-09-12T00:16:23.280Z,15.98
2022-09-12T00:18:49.984Z,16.05
2022-09-12T00:21:18.131Z,16.15
2022-09-12T00:23:45.148Z,16.80
2022-09-12T00:26:12.436Z,16.95
2022-09-12T00:28:40.377Z,15.73
2022-09-12T00:31:09.386Z,16.60
2022-09-12T00:33:36.007Z,16.17
2022-09-12T00:36:08.394Z,16.23
2022-09-12T00:38:38.446Z,17.27
2022-09-12T00:41:06.153Z,16.50
2022-09-12T00:43:41.622Z,15.50
2022-09-12T00:46:46.943Z,15.95
2022-09-12T00:49:28.216Z,16.75
2022-09-12T00:52:03.559Z,16.15
2022-09-12T00:57:06.351Z,16.73
2022-09-12T00:59:38.340Z,15.45
2022-09-12T01:02:05.005Z,16.95
2022-09-12T01:04:32.456Z,15.52
2022-09-12T01:06:58.909Z,16.90
2022-09-12T01:09:25.761Z,16.77
2022-09-12T01:11:53.284Z,16.73
2022-09-12T01:14:20.747Z,17.58
2022-09-12T01:16:49.893Z,17.50
2022-09-12T01:19:35.197Z,16.02
2022-09-12T01:22:01.546Z,18.48
2022-09-12T01:24:34.524Z,18.10
2022-09-12T01:27:25.326Z,17.05
2022-09-12T01:30:22.900Z,15.82
2022-09-12T01:33:12.983Z,16.98
2022-09-12T01:35:51.518Z,16.65
2022-09-12T01:38:44.982Z,15.65
2022-09-12T01:41:26.719Z,15.23
2022-09-12T01:44:16.416Z,15.38
2022-09-12T01:46:54.226Z,15.65
2022-09-12T01:49:46.260Z,16.38
2022-09-12T01:52:32.360Z,15.32
2022-09-12T01:55:11.004Z,16.65
2022-09-12T01:57:46.855Z,16.13
2022-09-12T02:00:14.063Z,15.90
2022-09-12T02:02:52.936Z,16.17
2022-09-12T02:05:29.406Z,16.75
2022-09-12T02:08:35.487Z,16.52
2022-09-12T02:11:09.626Z,18.98
2022-09-12T02:13:46.566Z,16.52
2022-09-12T02:16:30.590Z,15.57
2022-09-12T02:19:07.329Z,15.25
2022-09-12T02:21:37.048Z,15.70
2022-09-12T02:24:08.791Z,16.38
2022-09-12T02:26:41.447Z,15.98
2022-09-12T02:29:08.067Z,16.40
2022-09-12T02:31:49.919Z,14.75
2022-09-12T02:34:39.788Z,16.05
2022-09-12T02:37:25.890Z,16.80
2022-09-12T02:39:55.042Z,17.77
2022-09-12T02:42:22.521Z,15.30
2022-09-12T02:44:51.472Z,15.57
2022-09-12T02:47:39.493Z,16.45
2022-09-12T02:50:08.081Z,15.63
2022-09-12T02:52:36.116Z,16.83
2022-09-12T02:55:05.217Z,16.70
2022-09-12T02:57:32.007Z,16.27
2022-09-12T03:00:01.476Z,17.02
2022-09-12T03:03:04.510Z,16.00
2022-09-12T03:05:47.359Z,16.42
2022-09-12T03:08:35.390Z,15.30
2022-09-12T03:11:13.917Z,15.02
2022-09-12T03:14:01.879Z,16.45
2022-09-12T03:16:34.270Z,15.55
2022-09-12T03:19:32.314Z,16.92
2022-09-12T03:22:17.509Z,15.93
2022-09-12T03:25:14.882Z,16.85
2022-09-12T03:28:06.073Z,17.08
2022-09-12T03:30:38.790Z,17.25
2022-09-12T03:33:05.215Z,16.25
2022-09-12T03:35:31.715Z,16.30
2022-09-12T03:37:58.178Z,16.58
2022-09-12T03:40:24.609Z,15.98
2022-09-12T03:42:51.080Z,15.43
2022-09-12T03:45:17.735Z,15.10
2022-09-12T03:47:44.286Z,17.27
2022-09-12T03:50:10.737Z,16.42
2022-09-12T03:52:37.337Z,16.15
2022-09-12T03:55:04.333Z,16.25
2022-09-12T03:57:30.747Z,17.20
2022-09-12T03:59:57.201Z,15.77
2022-09-12T04:02:23.708Z,16.45
2022-09-12T04:04:50.236Z,17.90
2022-09-12T04:07:16.881Z,17.45
2022-09-12T04:09:43.593Z,15.80
2022-09-12T04:12:10.264Z,15.90
2022-09-12T04:14:36.894Z,15.70
2022-09-12T04:17:03.345Z,14.85
2022-09-12T04:19:29.833Z,16.70
2022-09-12T04:21:56.233Z,15.80
2022-09-12T04:24:22.819Z,16.10
2022-09-12T04:26:49.262Z,15.95
2022-09-12T04:29:15.844Z,16.15
2022-09-12T04:31:42.474Z,16.60
2022-09-12T04:34:09.720Z,16.38
2022-09-12T04:36:36.750Z,14.63
2022-09-12T04:39:06.450Z,15.75
2022-09-12T04:41:36.645Z,15.15
2022-09-12T04:44:08.685Z,16.30
2022-09-12T04:46:38.626Z,16.08
2022-09-12T04:49:05.248Z,15.00
2022-09-12T04:51:35.939Z,16.65
2022-09-12T04:54:15.021Z,14.90
2022-09-12T04:56:43.344Z,15.95
2022-09-12T04:59:11.308Z,16.15
2022-09-12T05:01:37.812Z,15.68
2022-09-12T05:04:04.597Z,13.75
2022-09-12T05:06:36.498Z,15.10
2022-09-12T05:09:05.166Z,17.52
2022-09-12T05:12:02.757Z,15.18
2022-09-12T05:14:24.617Z,16.23
2022-09-12T05:16:51.126Z,15.70
2022-09-12T05:19:17.672Z,16.50
2022-09-12T05:21:44.125Z,16.42
2022-09-12T05:24:11.505Z,16.35
2022-09-12T05:26:38.227Z,16.08
2022-09-12T05:29:05.141Z,16.38
2022-09-12T05:31:31.556Z,15.85
2022-09-12T05:33:58.020Z,17.60
2022-09-12T05:36:27.649Z,16.75
2022-09-12T05:38:54.127Z,15.43
2022-09-12T05:41:25.125Z,17.23
2022-09-12T05:44:00.089Z,14.98
2022-09-12T05:46:29.447Z,15.85
2022-09-12T05:48:58.387Z,14.82
2022-09-12T05:51:28.030Z,17.08
2022-09-12T05:53:59.945Z,16.45
2022-09-12T05:56:28.395Z,15.40
2022-09-12T05:58:57.233Z,15.27
2022-09-12T06:01:24.640Z,17.73
2022-09-12T06:03:52.981Z,16.50
2022-09-12T06:06:22.658Z,15.70
2022-09-12T06:08:51.767Z,16.20
2022-09-12T06:11:21.354Z,17.52
2022-09-12T06:13:47.919Z,17.00
2022-09-12T06:16:22.668Z,17.20
2022-09-12T06:18:51.791Z,17.27
2022-09-12T06:21:19.066Z,17.40
2022-09-12T06:23:46.230Z,16.63
2022-09-12T06:26:13.096Z,17.60
2022-09-12T06:28:41.848Z,17.63
2022-09-12T06:31:17.182Z,16.45
2022-09-12T06:36:17.949Z,15.98
2022-09-12T06:38:48.726Z,17.48
2022-09-12T06:41:15.910Z,16.50
2022-09-12T06:43:43.043Z,17.35
2022-09-12T06:46:10.626Z,19.20
2022-09-12T06:48:41.720Z,16.90
2022-09-12T06:51:14.701Z,16.83
2022-09-12T06:53:42.345Z,16.73
2022-09-12T06:56:29.103Z,16.90
2022-09-12T06:58:57.313Z,16.85
2022-09-12T07:01:27.933Z,18.27
2022-09-12T07:03:59.831Z,16.33
2022-09-12T07:06:32.352Z,17.17
2022-09-12T07:09:00.271Z,18.08
2022-09-12T07:11:31.977Z,17.25
2022-09-12T07:13:59.900Z,16.90
2022-09-12T07:16:26.406Z,15.00
2022-09-12T07:19:01.258Z,17.38
2022-09-12T07:21:29.030Z,16.90
2022-09-12T07:23:57.713Z,16.90
2022-09-12T07:26:26.444Z,16.88
2022-09-12T07:29:00.702Z,17.20
2022-09-12T07:31:39.542Z,17.00
2022-09-12T07:34:06.782Z,15.95
2022-09-12T07:36:33.680Z,16.10
2022-09-12T07:39:00.198Z,17.02
2022-09-12T07:41:28.805Z,16.77
2022-09-12T07:43:57.376Z,17.35
2022-09-12T07:46:25.038Z,15.20
2022-09-12T07:48:56.444Z,16.83
2022-09-12T07:51:24.210Z,15.00
2022-09-12T07:53:51.751Z,14.93
2022-09-12T07:56:26.137Z,16.85
2022-09-12T07:58:56.554Z,15.63
2022-09-12T08:01:23.406Z,16.98
2022-09-12T08:03:54.440Z,15.85
2022-09-12T08:06:24.170Z,16.27
2022-09-12T08:08:52.078Z,15.63
2022-09-12T08:11:20.512Z,15.40
2022-09-12T08:13:50.616Z,15.20
2022-09-12T08:16:22.886Z,14.65
2022-09-12T08:18:50.290Z,15.13
2022-09-12T08:21:22.141Z,15.90
2022-09-12T08:23:53.562Z,15.52
2022-09-12T08:26:20.097Z,14.32
2022-09-12T08:28:47.090Z,14.15
2022-09-12T08:31:16.617Z,14.65
2022-09-12T08:33:43.171Z,15.00
2022-09-12T08:36:19.902Z,16.00
2022-09-12T08:38:48.336Z,14.23
2022-09-12T08:41:28.154Z,14.85
2022-09-12T08:44:03.694Z,14.77
2022-09-12T08:46:39.345Z,14.60
2022-09-12T08:49:12.577Z,14.10
2022-09-12T08:51:39.982Z,14.82
2022-09-12T08:54:19.377Z,15.65
2022-09-12T08:56:46.728Z,14.93
2022-09-12T08:59:13.721Z,14.88
2022-09-12T09:01:45.467Z,12.48
2022-09-12T09:04:30.284Z,13.40
2022-09-12T09:07:15.706Z,13.90
2022-09-12T09:10:17.028Z,13.10
2022-09-12T09:12:52.028Z,11.65
2022-09-12T09:15:40.706Z,13.55
2022-09-12T09:18:31.997Z,11.88
2022-09-12T09:21:17.246Z,11.05
2022-09-12T09:23:49.315Z,11.32
2022-09-12T09:26:27.890Z,10.68
2022-09-12T09:29:01.117Z,8.30
2022-09-12T09:31:33.779Z,5.85
2022-09-12T09:34:00.596Z,8.32
2022-09-12T09:36:45.303Z,9.13
2022-09-12T09:39:30.474Z,7.27
2022-09-12T09:42:09.516Z,9.75
2022-09-12T09:44:36.721Z,8.57
2022-09-12T09:47:03.454Z,9.13
2022-09-12T09:49:33.465Z,8.40
2022-09-12T09:52:03.540Z,8.60
2022-09-12T09:54:37.582Z,8.20
2022-09-12T09:57:05.109Z,7.57
2022-09-12T09:59:36.331Z,9.07
2022-09-12T10:02:25.743Z,8.60
2022-09-12T10:04:59.860Z,7.03
2022-09-12T10:07:27.074Z,8.23
2022-09-12T10:10:18.891Z,7.85
2022-09-12T10:12:45.806Z,8.70
2022-09-12T10:15:20.111Z,5.53
2022-09-12T10:17:49.664Z,8.27
2022-09-12T10:20:40.116Z,6.80
2022-09-12T10:23:30.299Z,2.88
2022-09-12T10:26:01.478Z,6.47
2022-09-12T10:28:39.584Z,6.88
2022-09-12T10:31:09.722Z,3.47
2022-09-12T10:33:47.357Z,6.03
2022-09-12T10:36:15.553Z,2.97
2022-09-12T10:38:53.483Z,5.57
2022-09-12T10:41:21.869Z,6.68
2022-09-12T10:43:48.912Z,5.15
2022-09-12T10:46:17.983Z,5.25
2022-09-12T10:48:49.509Z,4.57
2022-09-12T10:51:24.805Z,5.57
2022-09-12T10:54:02.192Z,4.22
2022-09-12T10:56:47.240Z,5.50
2022-09-12T10:59:34.250Z,4.30
2022-09-12T11:02:14.805Z,4.10
2022-09-12T11:04:53.407Z,4.22
2022-09-12T11:07:46.835Z,4.22
2022-09-12T11:10:13.432Z,3.28
2022-09-12T11:12:53.199Z,4.45
2022-09-12T11:15:40.811Z,3.42
2022-09-12T11:18:23.369Z,3.05
2022-09-12T11:21:16.962Z,2.63
2022-09-12T11:24:18.359Z,3.45
2022-09-12T11:27:00.089Z,2.75
2022-09-12T11:29:26.466Z,1.88
2022-09-12T11:31:55.635Z,2.28
2022-09-12T11:34:45.927Z,2.90
2022-09-12T11:37:30.691Z,2.90
2022-09-12T11:40:05.678Z,3.20
2022-09-12T11:45:15.269Z,3.25
2022-09-12T11:47:48.307Z,3.30
2022-09-12T11:50:29.954Z,2.83
2022-09-12T11:53:05.105Z,3.15
2022-09-12T11:55:44.363Z,2.63
2022-09-12T11:58:11.528Z,2.67
2022-09-12T12:00:47.339Z,2.90
2022-09-12T12:03:27.030Z,3.10
2022-09-12T12:06:06.004Z,2.80
2022-09-12T12:08:38.729Z,2.28
2022-09-12T12:11:08.052Z,1.23
2022-09-12T12:13:39.837Z,2.05
2022-09-12T12:16:28.019Z,3.50
2022-09-12T12:19:10.959Z,3.60
2022-09-12T12:21:37.537Z,1.80
2022-09-12T12:24:09.830Z,2.63
2022-09-12T12:26:39.525Z,3.58
2022-09-12T12:29:09.913Z,2.70
2022-09-12T12:32:04.031Z,4.45
2022-09-12T12:34:36.020Z,4.32
2022-09-12T12:37:25.511Z,1.83
2022-09-12T12:40:01.237Z,17.55
2022-09-12T12:42:34.184Z,7.88
2022-09-12T12:45:09.373Z,3.00
2022-09-12T12:47:35.719Z,4.07
2022-09-12T12:50:07.906Z,3.17
2022-09-12T12:52:52.592Z,2.80
2022-09-12T12:55:38.575Z,3.20
2022-09-12T12:58:07.707Z,2.60
2022-09-12T13:00:39.979Z,2.80
2022-09-12T13:03:09.187Z,2.70
2022-09-12T13:06:01.988Z,2.95
2022-09-12T13:08:32.070Z,2.60
2022-09-12T13:11:14.377Z,2.40
2022-09-12T13:13:49.513Z,2.72
2022-09-12T13:16:34.832Z,2.60
2022-09-12T13:19:18.406Z,2.60
2022-09-12T13:22:07.620Z,2.58
2022-09-12T13:24:43.125Z,2.45
2022-09-12T13:27:25.346Z,2.35
2022-09-12T13:30:15.211Z,2.38
2022-09-12T13:32:43.523Z,2.90
2022-09-12T13:35:53.027Z,2.67
2022-09-12T13:38:45.454Z,3.08
2022-09-12T13:41:30.906Z,3.33
2022-09-12T13:43:57.664Z,2.55
2022-09-12T13:46:30.204Z,2.42
2022-09-12T13:49:00.535Z,2.08
2022-09-12T13:51:30.391Z,2.42
2022-09-12T13:54:02.801Z,2.88
2022-09-12T13:56:29.478Z,1.38
2022-09-12T13:59:02.446Z,2.45
2022-09-12T14:01:44.095Z,2.78
2022-09-12T14:04:41.245Z,2.88
2022-09-12T14:07:13.601Z,3.05
2022-09-12T14:09:43.835Z,2.40
2022-09-12T14:12:19.191Z,2.70
2022-09-12T14:14:49.961Z,2.70
2022-09-12T14:17:32.080Z,2.40
2022-09-12T14:20:05.558Z,2.28
2022-09-12T14:22:34.199Z,2.67
2022-09-12T14:25:01.972Z,2.83
2022-09-12T14:27:45.738Z,2.60
2022-09-12T14:30:27.658Z,2.63
2022-09-12T14:33:06.419Z,2.42
2022-09-12T14:35:33.198Z,1.48
2022-09-12T14:38:08.167Z,2.50
2022-09-12T14:40:42.183Z,2.65
2022-09-12T14:43:20.039Z,2.80
2022-09-12T14:45:57.370Z,2.35
2022-09-12T14:48:24.991Z,3.58
2022-09-12T14:50:53.241Z,3.30
2022-09-12T14:53:19.614Z,2.40
2022-09-12T14:55:53.373Z,2.75
2022-09-12T14:58:19.788Z,2.90
2022-09-12T15:00:58.670Z,2.47
2022-09-12T15:03:30.447Z,2.78
2022-09-12T15:05:57.884Z,2.67
2022-09-12T15:08:25.421Z,3.17
2022-09-12T15:10:51.840Z,2.90
2022-09-12T15:13:23.871Z,2.70
2022-09-12T15:15:54.708Z,2.45
2022-09-12T15:18:24.077Z,2.83
2022-09-12T15:20:54.951Z,2.80
2022-09-12T15:23:31.109Z,2.60
2022-09-12T15:25:57.553Z,2.88
2022-09-12T15:28:24.762Z,2.80
2022-09-12T15:30:53.916Z,2.50
2022-09-12T15:33:22.927Z,2.85
2022-09-12T15:35:50.152Z,2.55
2022-09-12T15:38:16.707Z,2.80
2022-09-12T15:40:43.088Z,2.75
2022-09-12T15:43:13.462Z,3.20
2022-09-12T15:45:43.487Z,2.92
2022-09-12T15:48:10.211Z,3.08
2022-09-12T15:50:36.614Z,2.88
2022-09-12T15:53:03.252Z,2.58
2022-09-12T15:55:32.174Z,2.70
2022-09-12T15:58:03.551Z,3.10
2022-09-12T16:00:32.831Z,2.93
2022-09-12T16:02:59.390Z,2.58
2022-09-12T16:05:26.244Z,2.67
2022-09-12T16:07:54.538Z,2.83
2022-09-12T16:10:24.847Z,2.90
2022-09-12T16:12:51.972Z,2.45
2022-09-12T16:15:21.295Z,2.47
2022-09-12T16:17:48.462Z,2.47
2022-09-12T16:20:14.994Z,2.65
2022-09-12T16:22:42.167Z,2.83
2022-09-12T16:25:09.397Z,2.83
2022-09-12T16:27:37.419Z,2.40
2022-09-12T16:30:06.036Z,2.30
2022-09-12T16:32:32.929Z,2.42
2022-09-12T16:34:59.545Z,2.63
2022-09-12T16:37:26.007Z,2.17
2022-09-12T16:39:52.458Z,2.25
2022-09-12T16:42:19.369Z,1.83
2022-09-12T16:44:47.027Z,2.67
2022-09-12T16:47:14.644Z,2.63
2022-09-12T16:49:41.079Z,2.42
2022-09-12T16:52:08.118Z,3.00
2022-09-12T16:54:34.819Z,2.90
2022-09-12T16:57:01.274Z,3.00
2022-09-12T16:59:27.796Z,3.42
2022-09-12T17:01:54.291Z,3.33
2022-09-12T17:04:23.590Z,2.65
2022-09-12T17:06:50.465Z,3.33
2022-09-12T17:09:18.520Z,3.00
2022-09-12T17:11:50.187Z,2.85
2022-09-12T17:14:17.039Z,2.90
2022-09-12T17:16:51.516Z,3.00
2022-09-12T17:19:22.049Z,3.00
2022-09-12T17:21:49.969Z,2.75
2022-09-12T17:24:19.448Z,2.85
2022-09-12T17:26:46.503Z,3.20
2022-09-12T17:29:14.073Z,3.08
2022-09-12T17:31:41.793Z,2.92
2022-09-12T17:34:08.994Z,3.08
2022-09-12T17:36:35.686Z,3.20
2022-09-12T17:39:03.879Z,3.00
2022-09-12T17:41:33.975Z,3.38
2022-09-12T17:44:03.438Z,3.38
2022-09-12T17:46:34.791Z,3.17
2022-09-12T17:49:02.712Z,3.55
2022-09-12T17:51:31.127Z,4.25
2022-09-12T17:54:06.594Z,2.85
2022-09-12T17:56:35.098Z,3.85
2022-09-12T17:59:01.883Z,3.42
2022-09-12T18:01:48.211Z,3.63
2022-09-12T18:04:15.778Z,3.70
2022-09-12T18:06:47.887Z,3.35
2022-09-12T18:09:23.254Z,3.40
2022-09-12T18:11:50.798Z,3.35
2022-09-12T18:14:18.245Z,2.90
2022-09-12T18:16:45.242Z,3.33
2022-09-12T18:19:12.551Z,3.40
2022-09-12T18:21:39.734Z,3.83
2022-09-12T18:24:06.452Z,3.90
2022-09-12T18:26:33.436Z,4.00
2022-09-12T18:28:59.785Z,3.78
2022-09-12T18:31:29.037Z,3.70
2022-09-12T18:33:56.374Z,3.90
2022-09-12T18:36:22.836Z,3.60
2022-09-12T18:38:49.707Z,4.00
2022-09-12T18:41:21.694Z,3.45
2022-09-12T18:43:49.230Z,3.63
2022-09-12T18:46:18.312Z,3.72
2022-09-12T18:48:45.387Z,3.70
2022-09-12T18:51:20.319Z,4.43
2022-09-12T18:53:54.823Z,3.60
2022-09-12T18:56:22.949Z,3.80
2022-09-12T18:58:52.256Z,4.30
2022-09-12T19:01:24.884Z,4.30
2022-09-12T19:03:52.450Z,4.40
2022-09-12T19:06:27.746Z,4.50
2022-09-12T19:08:55.385Z,5.40
2022-09-12T19:11:22.314Z,4.50
2022-09-12T19:13:51.167Z,4.00
2022-09-12T19:16:21.659Z,4.35
2022-09-12T19:18:49.660Z,4.10
2022-09-12T19:21:25.273Z,4.95
2022-09-12T19:23:53.358Z,4.65
2022-09-12T19:26:20.971Z,4.43
2022-09-12T19:28:47.885Z,4.07
2022-09-12T19:31:18.919Z,4.43
2022-09-12T19:33:46.129Z,3.72
2022-09-12T19:36:34.137Z,4.45
2022-09-12T19:39:01.343Z,4.20
2022-09-12T19:41:27.897Z,4.50
2022-09-12T19:43:56.234Z,4.35
2022-09-12T19:46:24.731Z,4.70
2022-09-12T19:48:52.403Z,4.80
2022-09-12T19:51:20.575Z,4.85
2022-09-12T19:53:48.431Z,4.60
2022-09-12T19:56:14.974Z,5.43
2022-09-12T19:58:44.273Z,4.55
2022-09-12T20:01:20.137Z,4.97
2022-09-12T20:03:47.148Z,5.00
2022-09-12T20:06:16.322Z,5.22
2022-09-12T20:08:44.004Z,5.10
2022-09-12T20:11:13.259Z,4.95
2022-09-12T20:13:40.346Z,4.60
2022-09-12T20:16:22.039Z,5.25
2022-09-12T20:18:53.546Z,5.38
2022-09-12T20:21:24.868Z,5.07
2022-09-12T20:23:51.734Z,4.90
2022-09-12T20:26:20.076Z,5.10
2022-09-12T20:28:46.498Z,5.10
2022-09-12T20:31:15.543Z,5.35
2022-09-12T20:33:42.647Z,6.95
2022-09-12T20:36:14.755Z,5.28
2022-09-12T20:38:46.159Z,5.20
2022-09-12T20:41:12.670Z,5.20
2022-09-12T20:43:39.999Z,5.00
2022-09-12T20:46:11.441Z,5.47
2022-09-12T20:48:39.232Z,5.15
2022-09-12T20:51:06.544Z,5.00
2022-09-12T20:53:35.262Z,5.63
2022-09-12T20:56:03.070Z,5.30
2022-09-12T20:58:29.501Z,5.20
2022-09-12T21:00:56.156Z,5.55
2022-09-12T21:03:23.022Z,5.22
2022-09-12T21:05:49.459Z,5.95
2022-09-12T21:08:15.914Z,6.20
2022-09-12T21:10:44.032Z,5.95
2022-09-12T21:13:11.693Z,5.72
2022-09-12T21:15:39.250Z,5.47
2022-09-12T21:18:06.495Z,5.45
2022-09-12T21:20:33.205Z,6.47
2022-09-12T21:23:00.306Z,6.43
2022-09-12T21:25:28.918Z,7.13
2022-09-12T21:27:55.419Z,5.80
2022-09-12T21:30:22.337Z,6.60
2022-09-12T21:32:48.867Z,6.63
2022-09-12T21:35:15.562Z,6.85
2022-09-12T21:37:41.955Z,8.05
2022-09-12T21:40:08.695Z,7.80
2022-09-12T21:42:35.253Z,6.78
2022-09-12T21:45:01.699Z,7.20
2022-09-12T21:47:28.115Z,6.93
2022-09-12T21:49:55.320Z,7.38
2022-09-12T21:52:21.993Z,6.90
2022-09-12T21:54:48.458Z,7.85
2022-09-12T21:57:14.887Z,8.27
2022-09-12T21:59:41.423Z,6.97
2022-09-12T22:02:09.459Z,6.80
2022-09-12T22:04:35.883Z,6.97
2022-09-12T22:07:02.380Z,6.90
2022-09-12T22:09:28.814Z,6.50
2022-09-12T22:11:55.578Z,7.95
2022-09-12T22:14:22.037Z,7.30
2022-09-12T22:16:49.363Z,7.68
2022-09-12T22:19:15.836Z,6.97
2022-09-12T22:22:02.199Z,7.22
2022-09-12T22:24:28.784Z,6.53
2022-09-12T22:26:57.221Z,7.50
2022-09-12T22:29:23.646Z,7.75
2022-09-12T22:31:50.353Z,6.68
2022-09-12T22:34:16.792Z,7.63
2022-09-12T22:36:43.181Z,7.93
2022-09-12T22:39:09.616Z,7.90
2022-09-12T22:41:36.473Z,8.05
2022-09-12T22:44:03.319Z,7.72
2022-09-12T22:46:30.605Z,7.15
2022-09-12T22:48:57.079Z,7.20
2022-09-12T22:51:23.912Z,7.60
2022-09-12T22:53:51.428Z,7.15
2022-09-12T22:56:18.199Z,6.93
2022-09-12T22:58:44.748Z,7.30
2022-09-12T23:01:11.608Z,7.53
2022-09-12T23:03:38.334Z,7.55
2022-09-12T23:06:05.959Z,6.75
2022-09-12T23:08:34.984Z,7.40
2022-09-12T23:11:09.328Z,7.45
2022-09-12T23:13:36.988Z,7.35
2022-09-12T23:16:05.989Z,6.80
2022-09-12T23:18:35.973Z,7.00
2022-09-12T23:21:05.990Z,6.93
2022-09-12T23:23:33.021Z,7.40
2022-09-12T23:26:05.731Z,7.85
2022-09-12T23:28:32.597Z,7.18
2022-09-12T23:31:00.315Z,6.32
2022-09-12T23:33:31.080Z,6.63
2022-09-12T23:36:08.426Z,7.68
2022-09-12T23:38:35.662Z,7.32
2022-09-12T23:41:03.602Z,7.43
2022-09-12T23:43:30.464Z,7.70
2022-09-12T23:45:58.009Z,7.93
2022-09-12T23:48:25.063Z,6.18
2022-09-12T23:50:51.710Z,6.60
2022-09-12T23:53:18.581Z,5.97
2022-09-12T23:55:45.771Z,7.40
2022-09-12T23:58:12.887Z,6.63
